sensor_id;sensor_type;location;lat;lon;timestamp;pressure;altitude;pressure_sealevel;temperature;humidity
11339;BME280;5724;42.684;23.252;2022-09-09T00:04:28;94587.75;;;17.55;75.13
11339;BME280;5724;42.684;23.252;2022-09-09T00:10:22;94578.28;;;17.45;75.59
11339;BME280;5724;42.684;23.252;2022-09-09T00:23:28;94562.13;;;17.40;75.90
11339;BME280;5724;42.684;23.252;2022-09-09T00:28:27;94556.59;;;17.26;76.50
11339;BME280;5724;42.684;23.252;2022-09-09T00:30:55;94553.47;;;17.20;77.27
11339;BME280;5724;42.684;23.252;2022-09-09T00:33:24;94551.50;;;17.17;77.72
11339;BME280;5724;42.684;23.252;2022-09-09T00:35:54;94548.34;;;17.19;77.93
11339;BME280;5724;42.684;23.252;2022-09-09T00:38:37;94541.63;;;17.12;78.35
11339;BME280;5724;42.684;23.252;2022-09-09T00:41:12;94545.22;;;16.99;79.21
11339;BME280;5724;42.684;23.252;2022-09-09T00:43:40;94553.88;;;16.79;80.08
11339;BME280;5724;42.684;23.252;2022-09-09T00:54:52;94547.94;;;17.24;78.03
11339;BME280;5724;42.684;23.252;2022-09-09T00:57:30;94551.88;;;17.30;77.78
11339;BME280;5724;42.684;23.252;2022-09-09T01:06:29;94542.81;;;17.22;77.46
11339;BME280;5724;42.684;23.252;2022-09-09T01:17:08;94548.75;;;16.85;79.03
11339;BME280;5724;42.684;23.252;2022-09-09T01:19:45;94551.50;;;16.92;78.58
11339;BME280;5724;42.684;23.252;2022-09-09T01:27:44;94539.28;;;17.07;77.57
11339;BME280;5724;42.684;23.252;2022-09-09T01:30:13;94556.25;;;16.99;78.12
11339;BME280;5724;42.684;23.252;2022-09-09T01:32:42;94554.22;;;16.64;78.85
11339;BME280;5724;42.684;23.252;2022-09-09T01:35:18;94555.38;;;16.52;80.37
11339;BME280;5724;42.684;23.252;2022-09-09T01:37:46;94553.84;;;16.76;79.10
11339;BME280;5724;42.684;23.252;2022-09-09T01:40:12;94559.31;;;16.51;79.56
11339;BME280;5724;42.684;23.252;2022-09-09T01:42:37;94561.66;;;16.38;79.20
11339;BME280;5724;42.684;23.252;2022-09-09T01:45:04;94566.31;;;16.13;80.17
11339;BME280;5724;42.684;23.252;2022-09-09T01:47:29;94563.09;;;15.96;81.02
11339;BME280;5724;42.684;23.252;2022-09-09T01:49:54;94571.78;;;16.06;80.99
11339;BME280;5724;42.684;23.252;2022-09-09T01:52:20;94574.16;;;16.11;80.84
11339;BME280;5724;42.684;23.252;2022-09-09T01:54:45;94565.56;;;16.23;80.38
11339;BME280;5724;42.684;23.252;2022-09-09T01:57:17;94570.28;;;16.26;80.13
11339;BME280;5724;42.684;23.252;2022-09-09T02:00:27;94575.44;;;16.35;80.26
11339;BME280;5724;42.684;23.252;2022-09-09T02:05:39;94565.56;;;16.30;80.04
11339;BME280;5724;42.684;23.252;2022-09-09T02:08:08;94571.88;;;16.38;79.67
11339;BME280;5724;42.684;23.252;2022-09-09T02:10:47;94569.16;;;16.41;79.91
11339;BME280;5724;42.684;23.252;2022-09-09T02:13:19;94539.59;;;16.45;79.84
11339;BME280;5724;42.684;23.252;2022-09-09T02:15:56;94553.75;;;16.40;79.60
11339;BME280;5724;42.684;23.252;2022-09-09T02:18:34;94547.88;;;16.42;79.88
11339;BME280;5724;42.684;23.252;2022-09-09T02:21:01;94555.75;;;16.36;80.48
11339;BME280;5724;42.684;23.252;2022-09-09T02:23:28;94549.41;;;16.25;80.82
11339;BME280;5724;42.684;23.252;2022-09-09T02:25:55;94562.00;;;16.26;81.22
11339;BME280;5724;42.684;23.252;2022-09-09T02:28:23;94556.09;;;16.24;81.37
11339;BME280;5724;42.684;23.252;2022-09-09T02:30:51;94556.06;;;16.20;81.33
11339;BME280;5724;42.684;23.252;2022-09-09T02:33:23;94563.59;;;16.30;81.24
11339;BME280;5724;42.684;23.252;2022-09-09T02:35:50;94562.81;;;16.37;80.84
11339;BME280;5724;42.684;23.252;2022-09-09T02:38:17;94573.50;;;16.42;80.34
11339;BME280;5724;42.684;23.252;2022-09-09T02:40:43;94577.38;;;16.30;81.03
11339;BME280;5724;42.684;23.252;2022-09-09T02:43:08;94565.19;;;16.31;80.52
11339;BME280;5724;42.684;23.252;2022-09-09T02:46:32;94571.84;;;16.23;81.00
11339;BME280;5724;42.684;23.252;2022-09-09T02:48:40;94571.84;;;16.23;80.89
11339;BME280;5724;42.684;23.252;2022-09-09T02:56:49;94571.84;;;16.30;80.73
11339;BME280;5724;42.684;23.252;2022-09-09T02:59:16;94563.19;;;16.25;80.69
11339;BME280;5724;42.684;23.252;2022-09-09T03:01:43;94561.97;;;16.19;81.40
11339;BME280;5724;42.684;23.252;2022-09-09T03:04:09;94565.94;;;16.28;80.79
11339;BME280;5724;42.684;23.252;2022-09-09T03:06:34;94563.22;;;16.32;80.49
11339;BME280;5724;42.684;23.252;2022-09-09T03:09:00;94564.75;;;16.19;80.53
11339;BME280;5724;42.684;23.252;2022-09-09T03:11:28;94558.81;;;16.10;80.40
11339;BME280;5724;42.684;23.252;2022-09-09T03:13:54;94546.97;;;15.98;80.67
11339;BME280;5724;42.684;23.252;2022-09-09T03:16:21;94565.88;;;16.07;80.89
11339;BME280;5724;42.684;23.252;2022-09-09T03:18:47;94568.66;;;16.11;80.72
11339;BME280;5724;42.684;23.252;2022-09-09T03:21:12;94569.00;;;15.95;82.62
11339;BME280;5724;42.684;23.252;2022-09-09T03:23:38;94569.31;;;15.79;82.56
11339;BME280;5724;42.684;23.252;2022-09-09T03:26:04;94561.03;;;15.79;82.68
11339;BME280;5724;42.684;23.252;2022-09-09T03:28:29;94561.44;;;15.74;83.61
11339;BME280;5724;42.684;23.252;2022-09-09T03:31:05;94564.44;;;15.58;84.33
11339;BME280;5724;42.684;23.252;2022-09-09T03:33:31;94558.94;;;15.55;84.49
11339;BME280;5724;42.684;23.252;2022-09-09T03:35:57;94550.19;;;15.38;85.06
11339;BME280;5724;42.684;23.252;2022-09-09T03:38:24;94558.94;;;15.58;84.64
11339;BME280;5724;42.684;23.252;2022-09-09T03:40:54;94558.50;;;15.45;85.59
11339;BME280;5724;42.684;23.252;2022-09-09T03:43:25;94552.22;;;15.49;85.54
11339;BME280;5724;42.684;23.252;2022-09-09T03:45:51;94550.59;;;15.44;86.10
11339;BME280;5724;42.684;23.252;2022-09-09T03:48:17;94551.75;;;15.36;86.35
11339;BME280;5724;42.684;23.252;2022-09-09T03:50:47;94573.44;;;15.44;86.29
11339;BME280;5724;42.684;23.252;2022-09-09T03:53:14;94578.97;;;15.52;85.94
11339;BME280;5724;42.684;23.252;2022-09-09T03:55:47;94574.63;;;15.51;85.47
11339;BME280;5724;42.684;23.252;2022-09-09T03:58:13;94558.06;;;15.40;85.48
11339;BME280;5724;42.684;23.252;2022-09-09T04:00:40;94564.34;;;15.40;85.65
11339;BME280;5724;42.684;23.252;2022-09-09T04:03:10;94577.28;;;15.33;86.71
11339;BME280;5724;42.684;23.252;2022-09-09T04:05:36;94575.69;;;15.28;86.84
11339;BME280;5724;42.684;23.252;2022-09-09T04:08:06;94571.75;;;15.29;87.01
11339;BME280;5724;42.684;23.252;2022-09-09T04:10:32;94576.81;;;15.24;87.60
11339;BME280;5724;42.684;23.252;2022-09-09T04:12:57;94568.09;;;15.14;88.49
11339;BME280;5724;42.684;23.252;2022-09-09T04:15:22;94572.78;;;15.10;88.70
11339;BME280;5724;42.684;23.252;2022-09-09T04:17:48;94567.28;;;15.07;88.98
11339;BME280;5724;42.684;23.252;2022-09-09T04:20:13;94571.69;;;15.22;88.65
11339;BME280;5724;42.684;23.252;2022-09-09T04:22:39;94562.63;;;15.18;88.76
11339;BME280;5724;42.684;23.252;2022-09-09T04:25:05;94561.91;;;15.28;88.23
11339;BME280;5724;42.684;23.252;2022-09-09T04:27:31;94580.81;;;15.33;87.89
11339;BME280;5724;42.684;23.252;2022-09-09T04:29:57;94570.56;;;15.30;88.34
11339;BME280;5724;42.684;23.252;2022-09-09T04:32:23;94565.84;;;15.31;87.97
11339;BME280;5724;42.684;23.252;2022-09-09T04:34:51;94581.97;;;15.29;88.01
11339;BME280;5724;42.684;23.252;2022-09-09T04:37:16;94581.19;;;15.32;88.27
11339;BME280;5724;42.684;23.252;2022-09-09T04:39:42;94579.34;;;15.50;87.35
11339;BME280;5724;42.684;23.252;2022-09-09T04:42:07;94581.41;;;15.60;87.20
11339;BME280;5724;42.684;23.252;2022-09-09T04:44:32;94581.44;;;15.64;86.85
11339;BME280;5724;42.684;23.252;2022-09-09T04:46:58;94583.81;;;15.69;86.82
11339;BME280;5724;42.684;23.252;2022-09-09T04:49:23;94570.09;;;15.76;86.92
11339;BME280;5724;42.684;23.252;2022-09-09T04:51:49;94557.47;;;15.71;87.08
11339;BME280;5724;42.684;23.252;2022-09-09T04:54:14;94568.94;;;15.84;87.17
11339;BME280;5724;42.684;23.252;2022-09-09T04:56:41;94567.78;;;15.89;87.04
11339;BME280;5724;42.684;23.252;2022-09-09T04:59:07;94557.97;;;15.95;86.86
11339;BME280;5724;42.684;23.252;2022-09-09T05:01:33;94558.00;;;16.06;86.17
11339;BME280;5724;42.684;23.252;2022-09-09T05:03:59;94563.97;;;16.25;85.93
11339;BME280;5724;42.684;23.252;2022-09-09T05:06:24;94552.19;;;16.32;85.85
11339;BME280;5724;42.684;23.252;2022-09-09T05:08:50;94543.91;;;16.36;85.48
11339;BME280;5724;42.684;23.252;2022-09-09T05:11:23;94545.94;;;16.53;85.47
11339;BME280;5724;42.684;23.252;2022-09-09T05:13:49;94561.69;;;16.67;85.06
11339;BME280;5724;42.684;23.252;2022-09-09T05:16:16;94561.34;;;16.79;84.56
11339;BME280;5724;42.684;23.252;2022-09-09T05:18:42;94552.69;;;16.91;83.65
11339;BME280;5724;42.684;23.252;2022-09-09T05:21:08;94545.22;;;16.99;83.30
11339;BME280;5724;42.684;23.252;2022-09-09T05:23:34;94549.53;;;17.07;82.90
11339;BME280;5724;42.684;23.252;2022-09-09T05:26:01;94537.28;;;17.29;81.71
11339;BME280;5724;42.684;23.252;2022-09-09T05:28:27;94549.47;;;17.53;80.43
11339;BME280;5724;42.684;23.252;2022-09-09T05:31:00;94556.94;;;17.63;78.41
11339;BME280;5724;42.684;23.252;2022-09-09T05:33:26;94563.25;;;17.82;77.29
11339;BME280;5724;42.684;23.252;2022-09-09T05:35:59;94557.22;;;18.08;76.75
11339;BME280;5724;42.684;23.252;2022-09-09T05:38:27;94553.19;;;18.23;76.29
11339;BME280;5724;42.684;23.252;2022-09-09T05:40:53;94565.38;;;18.40;75.15
11339;BME280;5724;42.684;23.252;2022-09-09T05:43:19;94564.97;;;18.45;74.95
11339;BME280;5724;42.684;23.252;2022-09-09T05:45:48;94570.13;;;18.43;74.47
11339;BME280;5724;42.684;23.252;2022-09-09T05:48:14;94574.38;;;18.51;74.10
11339;BME280;5724;42.684;23.252;2022-09-09T05:50:41;94576.00;;;18.49;74.14
11339;BME280;5724;42.684;23.252;2022-09-09T05:53:08;94576.72;;;18.64;73.69
11339;BME280;5724;42.684;23.252;2022-09-09T05:55:33;94569.97;;;18.68;73.20
11339;BME280;5724;42.684;23.252;2022-09-09T05:57:59;94569.19;;;18.64;72.79
11339;BME280;5724;42.684;23.252;2022-09-09T06:00:25;94570.00;;;18.61;72.55
11339;BME280;5724;42.684;23.252;2022-09-09T06:02:52;94581.19;;;18.40;73.25
11339;BME280;5724;42.684;23.252;2022-09-09T06:05:18;94594.16;;;18.50;73.36
11339;BME280;5724;42.684;23.252;2022-09-09T06:07:43;94584.25;;;18.56;73.00
11339;BME280;5724;42.684;23.252;2022-09-09T06:10:10;94582.63;;;18.62;73.01
11339;BME280;5724;42.684;23.252;2022-09-09T06:12:38;94584.19;;;18.70;72.47
11339;BME280;5724;42.684;23.252;2022-09-09T06:15:04;94577.00;;;18.83;72.44
11339;BME280;5724;42.684;23.252;2022-09-09T06:17:30;94579.63;;;19.05;71.54
11339;BME280;5724;42.684;23.252;2022-09-09T06:19:55;94574.41;;;19.14;71.53
11339;BME280;5724;42.684;23.252;2022-09-09T06:22:21;94582.22;;;19.26;70.86
11339;BME280;5724;42.684;23.252;2022-09-09T06:24:46;94576.56;;;19.40;69.80
11339;BME280;5724;42.684;23.252;2022-09-09T06:27:12;94580.31;;;19.16;69.75
11339;BME280;5724;42.684;23.252;2022-09-09T06:29:38;94584.41;;;19.45;68.97
11339;BME280;5724;42.684;23.252;2022-09-09T06:32:04;94581.94;;;19.58;68.14
11339;BME280;5724;42.684;23.252;2022-09-09T06:34:30;94579.91;;;19.66;67.45
11339;BME280;5724;42.684;23.252;2022-09-09T06:36:56;94567.53;;;19.74;67.20
11339;BME280;5724;42.684;23.252;2022-09-09T06:39:23;94541.97;;;19.59;66.88
11339;BME280;5724;42.684;23.252;2022-09-09T06:41:49;94569.78;;;19.90;66.34
11339;BME280;5724;42.684;23.252;2022-09-09T06:44:15;94564.97;;;20.24;66.01
11339;BME280;5724;42.684;23.252;2022-09-09T06:46:40;94566.84;;;20.35;65.07
11339;BME280;5724;42.684;23.252;2022-09-09T06:49:07;94569.47;;;20.49;64.00
11339;BME280;5724;42.684;23.252;2022-09-09T06:51:35;94578.25;;;20.44;63.79
11339;BME280;5724;42.684;23.252;2022-09-09T06:54:02;94595.28;;;20.46;64.66
11339;BME280;5724;42.684;23.252;2022-09-09T06:56:31;94592.53;;;20.73;64.34
11339;BME280;5724;42.684;23.252;2022-09-09T06:58:59;94588.00;;;20.86;63.54
11339;BME280;5724;42.684;23.252;2022-09-09T07:01:29;94594.00;;;20.81;63.45
11339;BME280;5724;42.684;23.252;2022-09-09T07:03:56;94595.75;;;20.98;63.21
11339;BME280;5724;42.684;23.252;2022-09-09T07:06:28;94591.25;;;20.50;64.55
11339;BME280;5724;42.684;23.252;2022-09-09T07:08:59;94594.84;;;20.78;64.06
11339;BME280;5724;42.684;23.252;2022-09-09T07:11:30;94587.75;;;21.04;62.92
11339;BME280;5724;42.684;23.252;2022-09-09T07:13:58;94583.09;;;21.21;62.32
11339;BME280;5724;42.684;23.252;2022-09-09T07:16:24;94582.47;;;21.09;62.28
11339;BME280;5724;42.684;23.252;2022-09-09T07:18:51;94587.25;;;21.09;61.56
11339;BME280;5724;42.684;23.252;2022-09-09T07:21:17;94587.44;;;21.22;61.94
11339;BME280;5724;42.684;23.252;2022-09-09T07:23:43;94573.47;;;21.29;61.87
11339;BME280;5724;42.684;23.252;2022-09-09T07:26:14;94573.84;;;21.31;60.94
11339;BME280;5724;42.684;23.252;2022-09-09T07:28:40;94571.25;;;21.17;61.33
11339;BME280;5724;42.684;23.252;2022-09-09T07:31:07;94573.34;;;20.85;62.11
11339;BME280;5724;42.684;23.252;2022-09-09T07:33:38;94573.00;;;20.80;62.22
11339;BME280;5724;42.684;23.252;2022-09-09T07:36:23;94569.44;;;21.06;61.17
11339;BME280;5724;42.684;23.252;2022-09-09T07:38:51;94561.22;;;21.23;61.01
11339;BME280;5724;42.684;23.252;2022-09-09T07:41:29;94578.03;;;21.42;61.23
11339;BME280;5724;42.684;23.252;2022-09-09T07:43:56;94578.44;;;21.64;59.66
11339;BME280;5724;42.684;23.252;2022-09-09T07:46:24;94567.38;;;22.04;59.06
11339;BME280;5724;42.684;23.252;2022-09-09T07:48:55;94577.41;;;22.21;58.03
11339;BME280;5724;42.684;23.252;2022-09-09T07:51:24;94577.75;;;22.43;58.00
11339;BME280;5724;42.684;23.252;2022-09-09T07:53:56;94576.06;;;22.66;57.47
11339;BME280;5724;42.684;23.252;2022-09-09T07:56:24;94579.91;;;22.92;56.55
11339;BME280;5724;42.684;23.252;2022-09-09T07:58:51;94576.63;;;23.13;55.36
11339;BME280;5724;42.684;23.252;2022-09-09T08:01:22;94576.13;;;23.34;55.49
11339;BME280;5724;42.684;23.252;2022-09-09T08:03:54;94574.47;;;23.37;55.02
11339;BME280;5724;42.684;23.252;2022-09-09T08:06:20;94573.50;;;23.43;54.36
11339;BME280;5724;42.684;23.252;2022-09-09T08:08:49;94575.59;;;23.72;53.42
11339;BME280;5724;42.684;23.252;2022-09-09T08:11:15;94579.25;;;23.53;54.32
11339;BME280;5724;42.684;23.252;2022-09-09T08:13:42;94581.38;;;23.65;54.56
11339;BME280;5724;42.684;23.252;2022-09-09T08:16:11;94579.88;;;23.28;54.01
11339;BME280;5724;42.684;23.252;2022-09-09T08:18:37;94572.81;;;23.56;54.31
11339;BME280;5724;42.684;23.252;2022-09-09T08:21:06;94579.25;;;23.53;53.66
11339;BME280;5724;42.684;23.252;2022-09-09T08:23:32;94576.31;;;23.27;53.62
11339;BME280;5724;42.684;23.252;2022-09-09T08:26:04;94574.00;;;22.90;54.84
11339;BME280;5724;42.684;23.252;2022-09-09T08:28:29;94561.13;;;22.76;55.09
11339;BME280;5724;42.684;23.252;2022-09-09T08:30:56;94566.97;;;23.18;54.58
11339;BME280;5724;42.684;23.252;2022-09-09T08:33:29;94564.06;;;23.54;53.91
11339;BME280;5724;42.684;23.252;2022-09-09T08:35:54;94569.84;;;23.47;53.34
11339;BME280;5724;42.684;23.252;2022-09-09T08:38:20;94562.19;;;23.67;53.26
11339;BME280;5724;42.684;23.252;2022-09-09T08:40:47;94565.75;;;23.51;52.82
11339;BME280;5724;42.684;23.252;2022-09-09T08:43:21;94568.44;;;23.22;53.95
11339;BME280;5724;42.684;23.252;2022-09-09T08:46:09;94560.09;;;23.38;53.22
11339;BME280;5724;42.684;23.252;2022-09-09T08:51:06;94559.09;;;23.94;53.11
11339;BME280;5724;42.684;23.252;2022-09-09T08:53:44;94567.09;;;24.37;53.54
11339;BME280;5724;42.684;23.252;2022-09-09T08:56:14;94561.06;;;24.39;52.41
11339;BME280;5724;42.684;23.252;2022-09-09T08:58:52;94560.75;;;24.20;53.17
11339;BME280;5724;42.684;23.252;2022-09-09T09:12:20;94561.00;;;24.68;51.60
11339;BME280;5724;42.684;23.252;2022-09-09T09:14:48;94558.78;;;24.88;51.93
11339;BME280;5724;42.684;23.252;2022-09-09T09:17:18;94553.38;;;25.10;51.07
11339;BME280;5724;42.684;23.252;2022-09-09T09:19:45;94554.81;;;25.27;50.10
11339;BME280;5724;42.684;23.252;2022-09-09T09:22:36;94551.91;;;25.31;50.65
11339;BME280;5724;42.684;23.252;2022-09-09T09:25:11;94549.88;;;25.19;49.85
11339;BME280;5724;42.684;23.252;2022-09-09T09:28:15;94559.16;;;25.28;50.14
11339;BME280;5724;42.684;23.252;2022-09-09T09:30:50;94560.53;;;25.24;50.57
11339;BME280;5724;42.684;23.252;2022-09-09T09:33:22;94557.03;;;25.45;49.39
11339;BME280;5724;42.684;23.252;2022-09-09T09:35:50;94548.97;;;25.47;49.33
11339;BME280;5724;42.684;23.252;2022-09-09T09:38:21;94545.06;;;25.45;50.57
11339;BME280;5724;42.684;23.252;2022-09-09T09:40:58;94543.72;;;25.36;49.05
11339;BME280;5724;42.684;23.252;2022-09-09T09:43:30;94541.06;;;25.20;48.87
11339;BME280;5724;42.684;23.252;2022-09-09T09:45:57;94526.28;;;24.94;50.90
11339;BME280;5724;42.684;23.252;2022-09-09T09:48:27;94542.47;;;24.87;51.02
11339;BME280;5724;42.684;23.252;2022-09-09T09:50:58;94523.69;;;24.87;50.61
11339;BME280;5724;42.684;23.252;2022-09-09T09:56:06;94531.88;;;24.94;50.52
11339;BME280;5724;42.684;23.252;2022-09-09T09:58:58;94529.53;;;24.93;50.53
11339;BME280;5724;42.684;23.252;2022-09-09T10:01:28;94530.22;;;25.09;50.52
11339;BME280;5724;42.684;23.252;2022-09-09T10:04:00;94532.13;;;25.13;50.38
11339;BME280;5724;42.684;23.252;2022-09-09T10:06:34;94533.66;;;25.26;49.40
11339;BME280;5724;42.684;23.252;2022-09-09T10:09:01;94538.03;;;25.15;49.70
11339;BME280;5724;42.684;23.252;2022-09-09T10:14:11;94540.91;;;24.86;51.33
11339;BME280;5724;42.684;23.252;2022-09-09T10:19:20;94546.50;;;24.86;50.77
11339;BME280;5724;42.684;23.252;2022-09-09T10:30:23;94548.59;;;24.69;51.36
11339;BME280;5724;42.684;23.252;2022-09-09T10:33:09;94547.28;;;24.73;51.25
11339;BME280;5724;42.684;23.252;2022-09-09T10:35:39;94551.50;;;24.65;50.70
11339;BME280;5724;42.684;23.252;2022-09-09T10:46:29;94554.63;;;23.96;54.08
11339;BME280;5724;42.684;23.252;2022-09-09T10:57:34;94548.31;;;23.14;57.53
11339;BME280;5724;42.684;23.252;2022-09-09T11:00:25;94545.59;;;22.95;57.82
11339;BME280;5724;42.684;23.252;2022-09-09T11:03:01;94533.25;;;22.76;57.97
11339;BME280;5724;42.684;23.252;2022-09-09T11:05:36;94560.84;;;22.90;58.18
11339;BME280;5724;42.684;23.252;2022-09-09T11:16:34;94536.91;;;23.09;59.47
11339;BME280;5724;42.684;23.252;2022-09-09T11:21:47;94537.69;;;23.26;59.66
11339;BME280;5724;42.684;23.252;2022-09-09T11:24:41;94498.94;;;23.31;59.45
11339;BME280;5724;42.684;23.252;2022-09-09T11:27:35;94525.75;;;23.58;58.98
11339;BME280;5724;42.684;23.252;2022-09-09T11:30:05;94512.25;;;23.40;58.86
11339;BME280;5724;42.684;23.252;2022-09-09T11:35:47;94496.25;;;23.73;57.83
11339;BME280;5724;42.684;23.252;2022-09-09T11:38:16;94500.34;;;23.85;58.19
11339;BME280;5724;42.684;23.252;2022-09-09T11:40:43;94481.31;;;23.67;59.28
11339;BME280;5724;42.684;23.252;2022-09-09T11:43:12;94490.59;;;23.77;59.31
11339;BME280;5724;42.684;23.252;2022-09-09T11:45:41;94465.94;;;23.75;59.03
11339;BME280;5724;42.684;23.252;2022-09-09T11:48:26;94445.94;;;24.06;59.15
11339;BME280;5724;42.684;23.252;2022-09-09T11:50:58;94459.25;;;24.27;58.41
11339;BME280;5724;42.684;23.252;2022-09-09T11:53:25;94458.88;;;24.54;57.76
11339;BME280;5724;42.684;23.252;2022-09-09T11:56:06;94468.47;;;24.53;57.14
11339;BME280;5724;42.684;23.252;2022-09-09T11:58:41;94464.56;;;24.76;57.48
11339;BME280;5724;42.684;23.252;2022-09-09T12:01:37;94471.16;;;24.95;56.67
11339;BME280;5724;42.684;23.252;2022-09-09T12:09:25;94446.13;;;24.78;56.82
11339;BME280;5724;42.684;23.252;2022-09-09T12:11:52;94435.81;;;25.14;57.05
11339;BME280;5724;42.684;23.252;2022-09-09T12:14:38;94423.97;;;25.09;56.35
11339;BME280;5724;42.684;23.252;2022-09-09T12:17:19;94432.97;;;25.26;55.83
11339;BME280;5724;42.684;23.252;2022-09-09T12:19:46;94431.13;;;25.10;55.45
11339;BME280;5724;42.684;23.252;2022-09-09T12:24:49;94432.19;;;25.26;54.96
11339;BME280;5724;42.684;23.252;2022-09-09T12:30:32;94424.91;;;25.63;53.82
11339;BME280;5724;42.684;23.252;2022-09-09T12:33:19;94418.84;;;25.43;53.13
11339;BME280;5724;42.684;23.252;2022-09-09T12:35:52;94429.78;;;25.15;53.28
11339;BME280;5724;42.684;23.252;2022-09-09T12:38:40;94420.19;;;25.03;54.31
11339;BME280;5724;42.684;23.252;2022-09-09T12:41:06;94417.72;;;25.05;54.24
11339;BME280;5724;42.684;23.252;2022-09-09T12:43:32;94438.31;;;24.73;55.54
11339;BME280;5724;42.684;23.252;2022-09-09T12:46:00;94438.53;;;24.66;55.35
11339;BME280;5724;42.684;23.252;2022-09-09T12:48:40;94425.91;;;24.62;55.76
11339;BME280;5724;42.684;23.252;2022-09-09T12:51:25;94421.31;;;24.80;56.41
11339;BME280;5724;42.684;23.252;2022-09-09T12:53:52;94409.19;;;24.96;55.35
11339;BME280;5724;42.684;23.252;2022-09-09T12:56:23;94413.09;;;24.99;55.68
11339;BME280;5724;42.684;23.252;2022-09-09T12:58:53;94403.84;;;24.89;55.60
11339;BME280;5724;42.684;23.252;2022-09-09T13:01:31;94409.25;;;24.71;55.91
11339;BME280;5724;42.684;23.252;2022-09-09T13:03:58;94404.66;;;24.64;56.33
11339;BME280;5724;42.684;23.252;2022-09-09T13:06:28;94411.47;;;24.50;56.62
11339;BME280;5724;42.684;23.252;2022-09-09T13:08:58;94404.31;;;24.49;57.21
11339;BME280;5724;42.684;23.252;2022-09-09T13:11:40;94405.00;;;24.53;57.13
11339;BME280;5724;42.684;23.252;2022-09-09T13:14:19;94404.44;;;24.59;57.24
11339;BME280;5724;42.684;23.252;2022-09-09T13:16:59;94391.81;;;24.54;57.08
11339;BME280;5724;42.684;23.252;2022-09-09T13:19:25;94399.44;;;24.53;57.39
11339;BME280;5724;42.684;23.252;2022-09-09T13:21:53;94373.28;;;24.47;57.13
11339;BME280;5724;42.684;23.252;2022-09-09T13:24:32;94376.84;;;24.48;57.19
11339;BME280;5724;42.684;23.252;2022-09-09T13:27:03;94372.81;;;24.49;57.32
11339;BME280;5724;42.684;23.252;2022-09-09T13:29:29;94372.03;;;24.48;57.20
11339;BME280;5724;42.684;23.252;2022-09-09T13:32:04;94370.59;;;24.57;56.92
11339;BME280;5724;42.684;23.252;2022-09-09T13:34:32;94368.47;;;24.48;56.77
11339;BME280;5724;42.684;23.252;2022-09-09T13:37:21;94368.38;;;24.51;56.77
11339;BME280;5724;42.684;23.252;2022-09-09T13:39:52;94363.75;;;24.58;57.04
11339;BME280;5724;42.684;23.252;2022-09-09T13:42:26;94359.50;;;24.66;56.99
11339;BME280;5724;42.684;23.252;2022-09-09T13:44:53;94356.41;;;24.64;57.23
11339;BME280;5724;42.684;23.252;2022-09-09T13:47:30;94358.41;;;24.63;57.12
11339;BME280;5724;42.684;23.252;2022-09-09T13:49:56;94359.38;;;24.82;56.39
11339;BME280;5724;42.684;23.252;2022-09-09T13:52:22;94351.66;;;24.86;55.80
11339;BME280;5724;42.684;23.252;2022-09-09T13:54:49;94349.84;;;25.05;55.53
11339;BME280;5724;42.684;23.252;2022-09-09T13:57:17;94339.44;;;25.05;56.36
11339;BME280;5724;42.684;23.252;2022-09-09T13:59:44;94351.16;;;25.13;55.93
11339;BME280;5724;42.684;23.252;2022-09-09T14:02:10;94347.28;;;25.32;54.67
11339;BME280;5724;42.684;23.252;2022-09-09T14:04:36;94344.75;;;25.47;53.42
11339;BME280;5724;42.684;23.252;2022-09-09T14:07:02;94348.38;;;25.57;53.58
11339;BME280;5724;42.684;23.252;2022-09-09T14:09:28;94345.47;;;25.60;53.32
11339;BME280;5724;42.684;23.252;2022-09-09T14:11:53;94338.91;;;25.76;53.19
11339;BME280;5724;42.684;23.252;2022-09-09T14:14:20;94331.22;;;25.89;52.95
11339;BME280;5724;42.684;23.252;2022-09-09T14:16:46;94330.34;;;25.71;53.33
11339;BME280;5724;42.684;23.252;2022-09-09T14:19:12;94327.69;;;25.76;51.87
11339;BME280;5724;42.684;23.252;2022-09-09T14:21:37;94327.97;;;25.91;52.66
11339;BME280;5724;42.684;23.252;2022-09-09T14:24:04;94328.28;;;25.93;51.67
11339;BME280;5724;42.684;23.252;2022-09-09T14:26:29;94328.09;;;25.87;53.00
11339;BME280;5724;42.684;23.252;2022-09-09T14:28:55;94337.09;;;26.13;52.04
11339;BME280;5724;42.684;23.252;2022-09-09T14:31:21;94342.19;;;26.06;52.32
11339;BME280;5724;42.684;23.252;2022-09-09T14:33:47;94330.19;;;26.05;52.32
11339;BME280;5724;42.684;23.252;2022-09-09T14:36:12;94330.53;;;26.07;52.25
11339;BME280;5724;42.684;23.252;2022-09-09T14:38:38;94323.06;;;26.13;51.35
11339;BME280;5724;42.684;23.252;2022-09-09T14:41:06;94331.63;;;26.10;52.32
11339;BME280;5724;42.684;23.252;2022-09-09T14:43:31;94337.81;;;26.05;52.25
11339;BME280;5724;42.684;23.252;2022-09-09T14:46:07;94334.03;;;25.89;53.02
11339;BME280;5724;42.684;23.252;2022-09-09T14:48:33;94323.72;;;25.86;52.93
11339;BME280;5724;42.684;23.252;2022-09-09T14:51:29;94327.31;;;25.87;52.92
11339;BME280;5724;42.684;23.252;2022-09-09T14:53:57;94329.31;;;25.86;52.87
11339;BME280;5724;42.684;23.252;2022-09-09T14:56:29;94341.69;;;25.76;52.58
11339;BME280;5724;42.684;23.252;2022-09-09T14:58:56;94344.06;;;25.78;53.21
11339;BME280;5724;42.684;23.252;2022-09-09T15:01:22;94344.31;;;25.71;52.84
11339;BME280;5724;42.684;23.252;2022-09-09T15:06:21;94357.53;;;25.70;53.21
11339;BME280;5724;42.684;23.252;2022-09-09T15:08:47;94351.06;;;25.60;53.33
11339;BME280;5724;42.684;23.252;2022-09-09T15:11:15;94361.13;;;25.71;53.84
11339;BME280;5724;42.684;23.252;2022-09-09T15:13:42;94362.38;;;25.57;53.66
11339;BME280;5724;42.684;23.252;2022-09-09T15:16:14;94364.38;;;25.56;53.48
11339;BME280;5724;42.684;23.252;2022-09-09T15:18:40;94359.78;;;25.62;54.17
11339;BME280;5724;42.684;23.252;2022-09-09T15:21:09;94354.03;;;25.79;52.98
11339;BME280;5724;42.684;23.252;2022-09-09T15:23:35;94341.06;;;25.72;51.63
11339;BME280;5724;42.684;23.252;2022-09-09T15:26:02;94348.41;;;25.79;51.11